Terminal Aerodrome Forecast
Issued by NWS

Home | Current Version | Previous Version | Graphics & Text | Print | Product List | Glossary On
Versions: 1 2 3 4 5 6 7 8 9 10 11 12 13 14 15 16 17 18 19 20 21 22 23 24
005
FTUS43 KABR 200105 AAB
TAFATY
TAF AMD
KATY 200105Z 2001/2024 16019G28KT P6SM -SHRA VCTS BKN025CB BKN040
      TEMPO 2001/2002 -TSRA SCT025 BKN030CB OVC080
     FM200200 15018G25KT P6SM VCTS OVC060CB
     FM200300 16017G25KT P6SM SHRA VCTS OVC080CB
     FM200400 20015G22KT 4SM SHRA OVC045
      TEMPO 2004/2005 2SM TSGR OVC025CB
     FM200500 26013KT P6SM VCTS OVC050CB
     FM200600 30011KT P6SM BKN070
     FM201000 27009KT P6SM SCT130
     FM202300 20008KT P6SM SKC=

USA.gov is the U.S. government's official web portal to all federal, state and local government web resources and services.